Historyczne dane pomiarowe

Dodano dane terminowe – wersja testowa.

Dane z okresu 1951-2019

Wersja bazy: 1.34 [2019-03-16, lista zmian], aktualizacja planowana na 2019-04-15

Dane meteo z obszaru Polski uzyskane na podstawie danych udostępnionych przez Instytut Meteorologii i Gospodarki Wodnej – Państwowy Instytut Badawczy.

 

Wybierz Datę:    

       

TemperaturaWilgotnośćWiatrCiśnienieOpadyŚniegCzas trwania zjawisk
 Stacja t tx tn tng RH VA  wxwx mslp ppp RRR   cm mm wxwxwxwxwxwxwx
1999-08-14 15.5 20.1 10.5--- 4.3 4.0---- 0.0------------
1999-08-13 15.2 20.4 8.9--- 6.0 1.3---- 0.0------------
1999-08-12 17.3 21.9 14.9--- 4.7 1.7---- 0.0------------
1999-08-11 20.4 23.3 17.7--- 5.7 2.0---- 2.1------------
1999-08-10 20.8 28.8 15.4--- 5.0 0.0---- 24.7------------
1999-08-09 23.4 30.7 16.8--- 2.7 1.3---- 5.2------------
1999-08-08 20.6 26.7 12.8--- 4.7 1.7---- 0.0------------
1999-08-07 19.5 27.6 10.3--- 1.3 1.0---- 0.0------------
1999-08-06 18.3 24.2 12.2--- 4.3 0.7---- 0.0------------
1999-08-05 18.1 25.2 10.6--- 4.3 0.0---- 0.0------------
1999-08-04 17.4 22.3 13.8--- 5.7 0.7---- 0.0------------
1999-08-03 16.6 20.9 13.4--- 7.0 0.7---- 0.5------------
1999-08-02 15.8 19.8 12.8--- 6.7 1.0---- 4.2------------
1999-08-01 17.9 22.9 13.9--- 5.7 2.3---- 11.1------------
1999-07-31 16.8 24.3 9.8--- 3.7 3.0---- 0.0------------
1999-07-30 17.2 23.4 10.3--- 3.7 1.3---- 0.0------------
1999-07-29 16.7 22.3 10.7--- 2.0 2.3---- 0.0------------
1999-07-28 17.6 21.9 14.7--- 4.7 3.7---- 2.4------------
1999-07-27 20.3 25.3 15.9--- 4.7 2.3---- 0.0------------
1999-07-26 21.4 27.1 14.6--- 4.7 2.3---- 0.0------------
1999-07-25 19.1 24.7 10.7--- 4.0 1.0---- 0.0------------
1999-07-24 18.2 22.9 13.2--- 4.3 1.7---- 0.0------------
1999-07-23 15.8 21.1 13.2--- 8.0 3.3---- 17.9------------
1999-07-22 22.3 27.8 17.9--- 5.0 3.0---- 8.5------------
1999-07-21 22.3 29.5 14.0--- 3.3 2.7---- 0.0------------
1999-07-20 21.3 27.9 13.9--- 1.3 2.7---- 0.0------------
1999-07-19 17.9 26.2 10.2--- 5.0 0.7---- 1.3------------
1999-07-18 18.2 24.6 8.9--- 4.3 1.7---- 0.0------------
1999-07-17 16.3 23.0 9.3--- 4.0 1.0---- 0.0------------
1999-07-16 16.1 21.9 8.9--- 3.3 1.3---- 0.0------------
1999-07-15 17.5 23.2 13.9--- 6.0 3.7---- 12.8------------
1999-07-14 22.1 28.1 15.4--- 2.7 4.3---- 0.0------------
1999-07-13 20.6 27.3 12.8--- 5.3 3.7---- 0.0------------
1999-07-12 20.3 27.4 13.4--- 3.0 4.7---- 0.0------------
1999-07-11 20.6 25.9 14.4--- 4.3 3.7---- 0.0------------
1999-07-10 19.0 22.8 16.4--- 5.3 4.7---- 0.0------------
1999-07-09 21.3 26.5 16.9--- 5.7 3.3---- 0.0------------
1999-07-08 21.8 26.7 17.9--- 6.7 0.7---- 2.1------------
1999-07-07 24.3 31.6 18.4--- 3.3 1.7---- 2.3------------
1999-07-06 24.0 32.0 14.5--- 1.7 1.0---- 0.0------------
1999-07-05 23.5 31.2 12.3--- 0.0 1.7---- 0.0------------
1999-07-04 22.0 29.0 11.8--- 2.3 1.0---- 0.0------------
1999-07-03 20.9 25.2 13.8--- 4.0 2.7---- 0.0------------
1999-07-02 20.8 25.7 16.6--- 4.0 2.3---- 0.0------------
1999-07-01 19.5 25.0 13.2--- 5.3 3.0---- 0.0------------
1999-06-30 19.8 24.8 14.4--- 2.7 2.0---- 0.0------------
1999-06-29 20.1 24.8 14.2--- 3.3 2.7---- 0.0------------
1999-06-28 20.1 28.6 8.4--- 2.7 2.0---- 0.0------------
1999-06-27 17.7 24.5 6.9--- 0.3 2.7---- 0.0------------
1999-06-26 15.3 21.8 5.4--- 2.0 1.3---- 0.0------------
1999-06-25 13.6 17.9 10.3--- 5.0 3.3---- 1.2------------
1999-06-24 11.3 12.5 10.2--- 8.0 4.0---- 8.6------------
1999-06-23 12.1 15.4 10.5--- 8.0 4.7---- 4.1------------
1999-06-22 18.3 24.3 14.4--- 6.3 4.0---- 7.6------------
1999-06-21 20.5 25.3 14.0--- 4.7 0.7---- 1.7------------
1999-06-20 19.9 25.3 13.9--- 3.3 1.7---- 0.0------------
1999-06-19 18.9 27.5 13.4--- 4.0 3.0---- 12.8------------
1999-06-18 21.3 27.9 12.9--- 3.3 2.7---- 0.0------------
1999-06-17 19.6 26.2 15.3--- 7.0 3.0---- 0.5------------
1999-06-16 20.8 25.1 15.9--- 4.3 2.7---- 0.0------------
642.3 ms

 

Źródłem pochodzenia danych jest Instytut Meteorologii i Gospodarki Wodnej – Państwowy Instytut Badawczy. Dane Instytutu Meteorologii i Gospodarki Wodnej – Państwowego Instytutu Badawczego zostały przetworzone.

Dane źródłowe można odnaleźć na stronie https://dane.imgw.pl